Airfield :







YOU CAN JOIN US ON...

 
LOGIN :

Register | Disclaimer

   EN    FR    IT 

 









Legend :    VFR   Marginal VFR   IFR   Intensive IFR   Very Intensive IFR
Visi :
Ceiling :
>= 8 km
>= 3000ft
5 to 8 km
1000 to 3000 ft
1500m to 5 km
500 to 1000 ft
800 to 1500m
200 to 500 ft
< 800m
< 200 ft
Symbols :   Thunderstorms  Fog  Heavy snow  Heavy precipitations  Wind > 20 kt






- Airport Elevation : 16 ft
- IATA code : FDF


TFFF - Aime Cesaire

CURRENT METAR :
  • 050100Z AUTO 06003KT CAVOK 25/23 Q1013 NOSIG

EXPIRED METARs :
  • 050030Z AUTO 05003KT CAVOK 26/23 Q1013 NOSIG
  • 050000Z AUTO 07003KT 9999 FEW038 26/23 Q1012 NOSIG
  • 042330Z AUTO 13004KT CAVOK 26/23 Q1012 NOSIG
  • 042300Z AUTO 13005KT CAVOK 26/23 Q1012 TEMPO 4000 SHRA SCT020TCU
  • 042230Z AUTO 13007KT CAVOK 27/23 Q1011 TEMPO 4000 SHRA SCT020TCU

TAF TAF TFFF
Valid from the 05 at 00:00 until the 06 at 00:00 UTC


042300Z 0500/0524 VRB02KT 9999 SCT030
BECMG 0511/0513 12010KT



MET'MAP, your aeronautical weather chart ! - Copyright ORBIFLY December 2007 - Disclaimer

ORBIFLY MET'MAP TEAM :

Programming & Development : Alexandra Zaïnal
Concept & original design : Baudouin d'Aumeries
Assistance for programming : Marc-Olivier Méhu
Technical & hardware support : Manuel Goepfert

Contact : metmap@orbifly.com




SOURCES & CREDITS :

   NOAA